Time;durP1;ratioP1;P1;durP2;ratioP2;P2;SDS_P1;SDS_P2;PMS_P1;PMS_P2;Temp;Humidity;BMP_temperature;BMP_pressure;BME280_temperature;BME280_humidity;BME280_pressure;Samples;Min_cycle;Max_cycle;Signal;HPM_P1;HPM_P2
2023/11/08 00:00:21;;;;;;;5.75;1.65;;;9.90;99.90;;;9.88;72.27;100099.03;5106813;28;20074;-81
2023/11/08 00:02:49;;;;;;;5.55;1.90;;;9.90;99.90;;;9.94;72.38;100093.66;5104677;28;20042;-80
2023/11/08 00:05:19;;;;;;;5.95;1.77;;;9.90;99.90;;;9.88;72.55;100091.88;5104189;28;20048;-80
2023/11/08 00:07:47;;;;;;;5.57;1.50;;;9.90;99.90;;;9.86;72.35;100085.09;5081402;28;20047;-80
2023/11/08 00:10:14;;;;;;;5.05;1.50;;;9.90;99.90;;;9.91;72.54;100094.13;5084888;28;20075;-80
2023/11/08 00:12:42;;;;;;;5.90;1.42;;;9.80;99.90;;;9.92;72.61;100098.41;5096684;28;20042;-81
2023/11/08 00:15:11;;;;;;;6.13;1.60;;;9.90;99.90;;;9.94;72.15;100103.50;5091995;28;20531;-80
2023/11/08 00:17:39;;;;;;;6.95;1.60;;;10.00;99.90;;;9.89;72.48;100106.00;5096926;28;20048;-81
2023/11/08 00:20:10;;;;;;;5.30;1.73;;;9.80;99.90;;;9.90;72.46;100096.97;5103078;28;20051;-80
2023/11/08 00:22:39;;;;;;;;;;;9.90;99.90;;;9.89;72.78;100106.81;5090588;28;20093;-80
2023/11/08 00:25:08;;;;;;;5.68;1.40;;;9.90;99.90;;;9.80;72.79;100106.25;5098308;28;19920;-81
2023/11/08 00:27:36;;;;;;;5.97;1.73;;;9.80;99.90;;;9.91;72.69;100103.94;5104324;28;20044;-80
2023/11/08 00:30:04;;;;;;;4.82;1.42;;;9.80;99.90;;;9.88;72.70;100105.19;5085689;28;20048;-80
2023/11/08 00:32:32;;;;;;;6.05;1.70;;;9.80;99.90;;;9.85;72.61;100104.78;5101055;28;20509;-80
2023/11/08 00:34:59;;;;;;;7.50;1.98;;;9.80;99.90;;;9.89;72.88;100104.16;5118546;28;20091;-80
2023/11/08 00:37:27;;;;;;;6.63;1.42;;;9.80;99.90;;;9.93;72.88;100108.00;5101390;28;20040;-81
2023/11/08 00:39:56;;;;;;;9.05;1.90;;;9.80;99.90;;;10.00;72.81;100116.78;5093797;28;20033;-80
2023/11/08 00:42:24;;;;;;;5.30;1.73;;;9.90;99.90;;;10.00;72.25;100107.97;5104211;28;20067;-81
2023/11/08 00:44:51;;;;;;;3.90;1.30;;;9.90;99.90;;;9.94;72.24;100114.16;5095025;28;20050;-81
2023/11/08 00:47:19;;;;;;;5.97;1.50;;;9.90;99.90;;;9.95;72.30;100113.94;5096662;28;20044;-80
2023/11/08 00:49:46;;;;;;;8.35;1.60;;;9.90;99.90;;;9.90;72.49;100116.44;5102445;28;20071;-80
2023/11/08 00:52:14;;;;;;;5.57;1.60;;;9.90;99.90;;;9.80;72.80;100114.25;5101306;28;20062;-80
2023/11/08 00:54:41;;;;;;;5.97;1.85;;;9.80;99.90;;;9.83;72.73;100106.88;5085737;28;20044;-81
2023/11/08 00:57:12;;;;;;;4.95;1.65;;;9.80;99.90;;;9.85;72.91;100108.28;5095647;28;20048;-81
2023/11/08 00:59:41;;;;;;;5.05;1.60;;;9.80;99.90;;;9.86;73.01;100125.06;5083938;28;20072;-81
2023/11/08 01:02:09;;;;;;;3.88;1.20;;;9.80;99.90;;;9.91;73.65;100134.06;5084096;28;20071;-80
2023/11/08 01:04:36;;;;;;;7.63;1.60;;;9.80;99.90;;;9.97;74.50;100119.06;5089227;28;20097;-81
2023/11/08 01:07:05;;;;;;;5.47;1.67;;;9.90;99.90;;;9.95;75.33;100126.44;5105496;28;20044;-81
2023/11/08 01:09:32;;;;;;;5.82;1.55;;;9.80;99.90;;;9.88;76.04;100118.50;5070518;28;20091;-81
2023/11/08 01:12:03;;;;;;;5.13;1.52;;;9.80;99.90;;;9.89;76.31;100124.66;5087332;28;20111;-81
2023/11/08 01:14:32;;;;;;;6.27;1.90;;;9.80;99.90;;;9.82;76.88;100122.03;5097621;28;20040;-81
2023/11/08 01:17:00;;;;;;;8.45;1.65;;;9.80;99.90;;;9.80;76.85;100124.91;5103621;28;20056;-81
2023/11/08 01:19:30;;;;;;;6.28;2.05;;;9.80;99.90;;;9.82;76.99;100123.88;5104010;28;20511;-81
2023/11/08 01:21:58;;;;;;;7.55;2.22;;;9.70;99.90;;;9.86;76.88;100127.72;5099855;28;20048;-81
2023/11/08 01:24:25;;;;;;;5.88;1.48;;;9.70;99.90;;;9.76;77.10;100123.72;5088138;28;20079;-81
2023/11/08 01:26:53;;;;;;;10.98;1.90;;;9.70;99.90;;;9.70;77.22;100127.22;5068363;28;20052;-81
2023/11/08 01:29:20;;;;;;;5.28;1.50;;;9.60;99.90;;;9.77;77.07;100128.00;5092430;28;20115;-81
2023/11/08 01:31:49;;;;;;;5.22;1.58;;;9.60;99.90;;;9.79;76.81;100123.25;5066977;28;20063;-81
2023/11/08 01:34:17;;;;;;;5.10;1.40;;;9.60;99.90;;;9.79;76.95;100133.91;5099181;28;20040;-81
2023/11/08 01:36:46;;;;;;;6.05;1.83;;;9.60;99.90;;;9.69;77.13;100128.25;5066901;28;20036;-81
2023/11/08 01:39:13;;;;;;;7.15;1.50;;;9.50;99.90;;;9.73;77.37;100133.97;5094659;28;20089;-81
2023/11/08 01:41:48;;;;;;;8.05;1.65;;;9.60;99.90;;;9.77;77.37;100135.19;5103232;28;20028;-81
2023/11/08 01:44:18;;;;;;;9.55;1.83;;;9.60;99.90;;;9.79;77.32;100130.44;5102262;28;20410;-81
2023/11/08 01:46:51;;;;;;;7.75;1.67;;;9.60;99.90;;;9.73;77.60;100134.78;5102063;28;20040;-81
2023/11/08 01:49:19;;;;;;;5.28;1.60;;;9.60;99.90;;;9.81;77.73;100141.72;5101370;28;20407;-81
2023/11/08 01:51:49;;;;;;;5.60;1.35;;;9.60;99.90;;;9.85;77.47;100144.75;5092089;28;20048;-81
2023/11/08 01:54:19;;;;;;;6.47;1.65;;;9.60;99.90;;;9.79;77.52;100133.91;5091929;28;20470;-81
2023/11/08 01:56:48;;;;;;;10.63;1.77;;;9.60;99.90;;;9.69;77.84;100133.56;5088831;28;20048;-81
2023/11/08 01:59:18;;;;;;;4.50;1.40;;;9.60;99.90;;;9.64;78.36;100135.25;5081937;28;20044;-81
2023/11/08 02:01:48;;;;;;;5.20;1.40;;;9.50;99.90;;;9.71;78.33;100138.66;5100183;28;20052;-81
2023/11/08 02:04:17;;;;;;;7.75;1.40;;;9.60;99.90;;;9.74;77.94;100141.72;5089730;28;20048;-81
2023/11/08 02:06:45;;;;;;;4.32;1.48;;;9.60;99.90;;;9.78;77.85;100140.28;5101247;28;20066;-81
2023/11/08 02:09:14;;;;;;;5.75;1.75;;;9.60;99.90;;;9.75;77.82;100143.38;5092909;28;20040;-81
2023/11/08 02:11:42;;;;;;;4.75;1.80;;;9.60;99.90;;;9.76;77.88;100142.34;5102239;28;20062;-81
2023/11/08 02:14:12;;;;;;;7.88;1.83;;;9.60;99.90;;;9.71;77.83;100150.16;5068278;28;20048;-81
2023/11/08 02:16:40;;;;;;;5.03;1.52;;;9.60;99.90;;;9.76;77.80;100141.50;5083992;28;20075;-81
2023/11/08 02:19:09;;;;;;;9.10;1.75;;;9.60;99.90;;;9.74;77.66;100147.06;5103634;28;20046;-81
2023/11/08 02:21:36;;;;;;;6.65;1.50;;;9.60;99.90;;;9.67;77.78;100145.47;5102149;28;20054;-81
2023/11/08 02:24:18;;;;;;;5.78;1.48;;;9.60;99.90;;;9.73;78.26;100149.94;5083029;28;20046;-81
2023/11/08 02:26:48;;;;;;;7.50;1.58;;;9.60;99.90;;;9.78;77.94;100145.59;5091803;28;20066;-81
2023/11/08 02:29:17;;;;;;;5.57;1.30;;;9.60;99.90;;;9.74;77.51;100146.25;5102397;28;20419;-81
2023/11/08 02:31:49;;;;;;;5.05;1.40;;;9.60;99.90;;;9.73;77.79;100140.09;5103671;28;20044;-81
2023/11/08 02:34:17;;;;;;;7.30;1.60;;;9.60;99.90;;;9.76;77.71;100145.03;5078666;28;20480;-81
2023/11/08 02:36:44;;;;;;;9.93;1.40;;;9.60;99.90;;;9.81;77.45;100141.72;5065450;28;20542;-81
2023/11/08 02:39:12;;;;;;;7.00;1.50;;;9.60;99.90;;;9.76;77.08;100149.50;5089178;28;20048;-81
2023/11/08 02:41:42;;;;;;;7.15;1.80;;;9.60;99.90;;;9.62;77.52;100146.13;5084432;28;20049;-81
2023/11/08 02:44:09;;;;;;;6.40;1.63;;;9.50;99.90;;;9.65;77.56;100148.34;5066121;28;20055;-81
2023/11/08 02:46:37;;;;;;;5.53;1.40;;;9.50;99.90;;;9.66;77.81;100134.00;5070624;28;20040;-81
2023/11/08 02:49:06;;;;;;;5.63;1.48;;;9.50;99.90;;;9.69;77.82;100141.56;5085022;28;20050;-81
2023/11/08 02:51:34;;;;;;;6.05;1.30;;;9.50;99.90;;;9.68;77.43;100142.59;5100358;28;20446;-81
2023/11/08 02:54:01;;;;;;;4.47;1.40;;;9.50;99.90;;;9.59;77.17;100138.53;5100693;28;20063;-81
2023/11/08 02:56:29;;;;;;;4.90;1.42;;;9.50;99.90;;;9.64;77.17;100137.91;5101903;28;20051;-81
2023/11/08 02:58:57;;;;;;;6.93;1.60;;;9.50;99.90;;;9.63;76.94;100144.28;5094886;28;20033;-81
2023/11/08 03:01:25;;;;;;;6.93;1.55;;;9.40;99.90;;;9.55;76.32;100140.81;5086556;28;20434;-81
2023/11/08 03:03:53;;;;;;;6.65;1.67;;;9.40;99.90;;;9.60;76.70;100150.00;5091894;28;20040;-81
2023/11/08 03:06:21;;;;;;;10.48;2.17;;;9.40;99.90;;;9.55;76.71;100143.47;5082421;28;20048;-81
2023/11/08 03:08:49;;;;;;;8.27;1.70;;;9.40;99.90;;;9.63;76.52;100152.25;5083741;28;20120;-81
2023/11/08 03:11:16;;;;;;;4.57;1.33;;;9.40;99.90;;;9.68;76.77;100150.59;5090044;28;20048;-81
2023/11/08 03:13:44;;;;;;;7.00;1.55;;;9.50;99.90;;;9.70;76.63;100151.19;5079388;28;20032;-81
2023/11/08 03:16:13;;;;;;;4.10;1.65;;;9.50;99.90;;;9.65;76.53;100158.16;5084292;28;20049;-81
2023/11/08 03:18:40;;;;;;;5.75;1.30;;;9.50;99.90;;;9.71;76.68;100159.97;5086555;28;20055;-81
2023/11/08 03:21:09;;;;;;;4.78;1.38;;;9.50;99.90;;;9.72;76.65;100154.47;5101163;28;20055;-81
2023/11/08 03:23:37;;;;;;;6.78;1.50;;;9.50;99.90;;;9.75;76.51;100154.00;5101646;28;20036;-82
2023/11/08 03:26:05;;;;;;;9.73;2.58;;;9.50;99.90;;;9.73;76.83;100161.41;5048318;28;20040;-81
2023/11/08 03:28:32;;;;;;;5.35;1.50;;;9.60;99.90;;;9.74;76.69;100163.03;5069234;28;20109;-81
2023/11/08 03:31:00;;;;;;;5.07;1.60;;;9.60;99.90;;;9.69;77.00;100160.19;5099214;28;20067;-81
2023/11/08 03:33:30;;;;;;;5.38;1.40;;;9.60;99.90;;;9.73;76.63;100161.41;5106304;28;20051;-81
2023/11/08 03:35:57;;;;;;;6.85;1.40;;;9.60;99.90;;;9.74;76.84;100156.91;5104863;28;20098;-81
2023/11/08 03:38:24;;;;;;;8.73;1.73;;;9.60;99.90;;;9.70;76.95;100161.81;5095800;28;20051;-81
2023/11/08 03:40:53;;;;;;;5.40;1.33;;;9.60;99.90;;;9.67;76.97;100167.59;5102250;28;20051;-81
2023/11/08 03:43:20;;;;;;;8.15;1.85;;;9.60;99.90;;;9.61;77.17;100167.59;5105847;28;20039;-81
2023/11/08 03:45:48;;;;;;;6.35;1.45;;;9.50;99.90;;;9.63;77.26;100162.91;5095431;28;20048;-81
2023/11/08 03:48:16;;;;;;;4.53;1.30;;;9.50;99.90;;;9.68;77.07;100163.91;5083471;28;20044;-81
2023/11/08 03:50:45;;;;;;;5.50;1.63;;;9.60;99.90;;;9.69;76.90;100175.38;5103805;28;20051;-81
2023/11/08 03:53:13;;;;;;;4.63;1.23;;;9.60;99.90;;;9.72;76.71;100178.44;5105231;28;20036;-81
2023/11/08 03:55:41;;;;;;;5.85;1.50;;;9.60;99.90;;;9.71;76.47;100181.28;5100972;28;20056;-81
2023/11/08 03:58:09;;;;;;;5.63;1.40;;;9.60;99.90;;;9.71;76.44;100176.81;5087944;28;20093;-81
2023/11/08 04:00:36;;;;;;;9.75;1.40;;;9.60;99.90;;;9.69;76.49;100173.50;5105016;28;20044;-81
2023/11/08 04:03:04;;;;;;;5.47;1.35;;;9.50;99.90;;;9.69;76.56;100186.00;5104975;28;20114;-81
2023/11/08 04:05:31;;;;;;;5.03;1.20;;;9.50;99.90;;;9.60;76.87;100177.44;5119484;28;20040;-81
2023/11/08 04:08:00;;;;;;;6.03;1.35;;;9.50;99.90;;;9.60;76.42;100180.09;5096002;28;20033;-81
2023/11/08 04:10:28;;;;;;;5.00;1.40;;;9.50;99.90;;;9.65;76.51;100184.78;5117271;28;20064;-81
2023/11/08 04:12:55;;;;;;;5.72;1.60;;;9.50;99.90;;;9.67;76.32;100177.44;5088055;28;20093;-81
2023/11/08 04:15:22;;;;;;;4.50;1.42;;;9.50;99.90;;;9.72;76.20;100180.28;5099180;28;20105;-81
2023/11/08 04:17:50;;;;;;;6.38;1.35;;;9.60;99.90;;;9.62;76.16;100178.06;5098867;28;20048;-81
2023/11/08 04:20:17;;;;;;;3.88;1.30;;;9.50;99.90;;;9.63;76.53;100182.34;5098386;28;20482;-81
2023/11/08 04:22:46;;;;;;;6.75;1.65;;;9.50;99.90;;;9.70;76.36;100188.44;5070257;28;20048;-81
2023/11/08 04:25:16;;;;;;;6.05;1.40;;;9.60;99.90;;;9.72;75.80;100190.94;5103711;28;20062;-81
2023/11/08 04:27:44;;;;;;;5.22;1.35;;;9.60;99.90;;;9.69;75.97;100194.00;5095165;28;20079;-81
2023/11/08 04:30:13;;;;;;;6.30;1.42;;;9.50;99.90;;;9.64;75.35;100197.28;5097425;28;20045;-81
2023/11/08 04:32:43;;;;;;;6.90;1.80;;;9.50;99.90;;;9.45;75.76;100190.22;5117787;28;20081;-81
2023/11/08 04:35:12;;;;;;;5.87;1.60;;;9.50;99.90;;;9.47;76.40;100186.31;5101656;28;20530;-81
2023/11/08 04:37:39;;;;;;;6.25;1.48;;;9.40;99.90;;;9.57;76.31;100180.53;5093973;28;20299;-80
2023/11/08 04:40:09;;;;;;;5.32;1.48;;;9.40;99.90;;;9.60;75.86;100193.41;5088939;28;20049;-81
2023/11/08 04:42:38;;;;;;;5.65;1.48;;;9.40;99.90;;;9.60;75.76;100190.75;5103285;28;20044;-81
2023/11/08 04:45:08;;;;;;;5.95;1.55;;;9.40;99.90;;;9.64;75.88;100191.97;5099531;28;20470;-81
2023/11/08 04:47:38;;;;;;;6.18;1.30;;;9.50;99.90;;;9.57;75.75;100196.53;5100121;28;20566;-81
2023/11/08 04:50:07;;;;;;;8.40;1.50;;;9.40;99.90;;;9.64;75.76;100194.63;5117837;28;20044;-81
2023/11/08 04:52:35;;;;;;;5.15;1.30;;;9.50;99.90;;;9.71;75.64;100186.59;5104580;28;20112;-81
2023/11/08 04:55:02;;;;;;;5.30;1.33;;;9.50;99.90;;;9.71;75.31;100189.28;5082400;28;20056;-81
2023/11/08 04:57:33;;;;;;;5.43;1.52;;;9.50;99.90;;;9.71;75.15;100189.28;5103637;28;20067;-81
2023/11/08 05:00:05;;;;;;;5.47;1.77;;;9.50;99.90;;;9.67;75.08;100198.72;5106532;28;20051;-81
2023/11/08 05:02:34;;;;;;;7.97;1.48;;;9.50;99.90;;;9.69;74.91;100196.66;5104547;28;20112;-81
2023/11/08 05:05:02;;;;;;;7.28;2.38;;;9.50;99.90;;;9.66;74.92;100205.06;5104708;28;20517;-81
2023/11/08 05:07:32;;;;;;;5.97;1.27;;;9.50;99.90;;;9.60;74.66;100204.06;5075759;28;20487;-81
2023/11/08 05:09:59;;;;;;;5.45;1.50;;;9.40;99.90;;;9.65;75.25;100198.09;5100400;28;20526;-81
2023/11/08 05:12:27;;;;;;;9.40;1.70;;;9.50;99.90;;;9.66;74.63;100197.06;5104783;28;20051;-81
2023/11/08 05:14:54;;;;;;;5.75;1.73;;;9.50;99.90;;;9.60;74.81;100195.28;5104099;28;20043;-81
2023/11/08 05:17:26;;;;;;;7.30;1.50;;;9.40;99.90;;;9.62;74.38;100201.22;5102121;28;20048;-81
2023/11/08 05:19:54;;;;;;;4.88;1.42;;;9.40;99.90;;;9.49;74.57;100194.91;5098520;28;20052;-81
2023/11/08 05:22:21;;;;;;;11.65;2.22;;;9.40;99.90;;;9.41;74.94;100197.78;5086713;28;20538;-81
2023/11/08 05:24:49;;;;;;;8.15;1.60;;;9.30;99.90;;;9.45;75.15;100201.66;5103405;28;20044;-81
2023/11/08 05:27:18;;;;;;;6.30;1.60;;;9.30;99.90;;;9.43;75.84;100203.75;5102183;28;20107;-81
2023/11/08 05:29:45;;;;;;;8.55;2.13;;;9.30;99.90;;;9.38;75.19;100208.06;5107577;28;20044;-81
2023/11/08 05:32:17;;;;;;;7.15;1.58;;;9.30;99.90;;;9.40;75.19;100213.97;5109314;28;20051;-81
2023/11/08 05:34:46;;;;;;;10.77;1.83;;;9.30;99.90;;;9.37;74.68;100207.25;5102044;28;20029;-81
2023/11/08 05:37:18;;;;;;;6.10;1.40;;;9.20;99.90;;;9.36;74.81;100197.59;5091198;28;20458;-82
2023/11/08 05:39:46;;;;;;;4.38;1.65;;;9.20;99.90;;;9.40;74.81;100204.16;5118888;28;20051;-81
2023/11/08 05:42:15;;;;;;;8.20;1.52;;;9.20;99.90;;;9.42;74.49;100199.44;5093792;28;20060;-81
2023/11/08 05:44:43;;;;;;;10.77;2.17;;;9.30;99.90;;;9.46;74.25;100197.97;5093492;28;20048;-81
2023/11/08 05:47:11;;;;;;;5.68;1.52;;;9.20;99.90;;;9.40;74.23;100198.00;5096002;28;20037;-81
2023/11/08 05:49:38;;;;;;;6.15;1.63;;;9.20;99.90;;;9.33;74.68;100211.34;5091931;28;20427;-81
2023/11/08 05:52:08;;;;;;;6.55;1.67;;;9.20;99.90;;;9.40;74.60;100214.78;5101743;28;20617;-81
2023/11/08 05:54:39;;;;;;;6.20;1.55;;;9.20;99.90;;;9.33;74.07;100202.53;5102010;28;20044;-82
2023/11/08 05:57:07;;;;;;;6.88;1.80;;;9.20;99.90;;;9.31;74.35;100212.56;5100099;28;20044;-81
2023/11/08 05:59:35;;;;;;;7.03;1.40;;;9.10;99.90;;;9.33;74.37;100222.00;5093984;28;20048;-82
2023/11/08 06:02:03;;;;;;;5.63;1.70;;;9.10;99.90;;;9.30;74.32;100214.41;5076763;28;20044;-82
2023/11/08 06:04:32;;;;;;;8.40;1.70;;;9.10;99.90;;;9.34;74.17;100209.50;5101131;28;20040;-82
2023/11/08 06:06:59;;;;;;;8.40;2.20;;;9.10;99.90;;;9.34;74.12;100209.50;5095469;28;20079;-82
2023/11/08 06:09:28;;;;;;;7.45;2.40;;;9.20;99.90;;;9.28;73.77;100217.28;5084097;28;20066;-83
2023/11/08 06:11:56;;;;;;;7.47;1.50;;;9.00;99.90;;;9.31;74.01;100216.03;5082776;28;20068;-82
2023/11/08 06:14:24;;;;;;;6.45;1.70;;;9.20;99.90;;;9.34;74.03;100214.81;5088863;28;20040;-81
2023/11/08 06:16:55;;;;;;;6.18;1.60;;;9.20;99.90;;;9.33;73.65;100215.84;5060800;28;20044;-82
2023/11/08 06:19:23;;;;;;;7.65;2.33;;;9.20;99.90;;;9.38;73.70;100213.38;5089648;28;20405;-83
2023/11/08 06:21:51;;;;;;;6.28;1.58;;;9.20;99.90;;;9.38;73.48;100222.19;5101663;28;20101;-82
2023/11/08 06:24:18;;;;;;;5.28;1.42;;;9.20;99.90;;;9.40;73.46;100228.09;5101244;28;20113;-82
2023/11/08 06:26:48;;;;;;;9.48;1.67;;;9.20;99.90;;;9.42;73.23;100234.06;5101899;28;20039;-82
2023/11/08 06:29:16;;;;;;;5.22;1.33;;;9.20;99.90;;;9.39;73.50;100233.63;5095026;28;20116;-83
2023/11/08 06:31:43;;;;;;;6.35;1.90;;;9.10;99.90;;;9.36;73.49;100240.19;5112269;28;20478;-83
2023/11/08 06:34:10;;;;;;;6.93;1.98;;;9.10;99.90;;;9.34;73.75;100236.13;5084280;28;20041;-83
2023/11/08 06:36:38;;;;;;;6.95;2.10;;;9.10;99.90;;;9.36;73.83;100236.72;5039866;28;20048;-84
2023/11/08 06:39:10;;;;;;;8.10;1.90;;;9.10;99.90;;;9.38;73.69;100238.16;5071343;28;20082;-86
2023/11/08 06:41:38;;;;;;;7.63;1.65;;;9.10;99.90;;;9.39;73.69;100237.13;5095454;28;20053;-85
2023/11/08 06:44:08;;;;;;;8.07;1.80;;;9.10;99.90;;;9.36;73.40;100247.34;5098978;28;20044;-85
2023/11/08 06:46:36;;;;;;;8.75;1.70;;;9.10;99.90;;;9.29;73.51;100256.19;5099190;28;20044;-81
2023/11/08 06:49:08;;;;;;;9.88;2.17;;;9.10;99.90;;;9.19;74.27;100253.13;5105760;28;20090;-84
2023/11/08 06:51:36;;;;;;;10.80;1.90;;;9.10;99.90;;;9.25;74.37;100260.28;5105229;28;20059;-81
2023/11/08 06:54:04;;;;;;;12.05;1.92;;;9.10;99.90;;;9.32;73.98;100254.13;5106712;28;20055;-82
2023/11/08 06:56:32;;;;;;;9.88;2.03;;;9.10;99.90;;;9.29;73.96;100266.81;5109345;28;20509;-81
2023/11/08 06:58:59;;;;;;;6.90;1.85;;;9.10;99.90;;;9.29;74.22;100271.34;5103125;28;20065;-81
2023/11/08 07:01:32;;;;;;;10.98;2.03;;;9.10;99.90;;;9.24;73.92;100273.78;5095030;28;20048;-81
2023/11/08 07:04:00;;;;;;;9.60;1.92;;;9.10;99.90;;;9.22;74.16;100271.34;5102602;28;20044;-81
2023/11/08 07:06:28;;;;;;;6.65;2.05;;;9.00;99.90;;;9.17;74.30;100279.09;5112108;28;20074;-81
2023/11/08 07:08:55;;;;;;;9.70;2.05;;;9.00;99.90;;;9.16;74.43;100272.16;5093548;28;20067;-81
2023/11/08 07:11:26;;;;;;;11.18;2.08;;;9.00;99.90;;;9.21;74.80;100275.00;5102892;28;20090;-81
2023/11/08 07:13:55;;;;;;;8.88;2.30;;;9.00;99.90;;;9.27;74.54;100276.88;5087876;28;20435;-81
2023/11/08 07:16:22;;;;;;;7.63;2.00;;;9.10;99.90;;;9.32;74.74;100270.94;5075752;28;20052;-81
2023/11/08 07:18:52;;;;;;;9.02;2.05;;;9.10;99.90;;;9.38;74.65;100271.94;5109192;28;20070;-81
2023/11/08 07:21:21;;;;;;;6.88;2.30;;;9.10;99.90;;;9.38;74.57;100275.41;5100745;28;20059;-81
2023/11/08 07:23:49;;;;;;;11.60;2.05;;;9.10;99.90;;;9.37;74.29;100273.78;5105499;28;20044;-81
2023/11/08 07:26:17;;;;;;;10.15;2.28;;;9.20;99.90;;;9.34;74.46;100274.19;5090859;28;20041;-81
2023/11/08 07:28:46;;;;;;;11.70;2.40;;;9.20;99.90;;;9.42;74.51;100275.78;5084977;28;20040;-81
2023/11/08 07:31:14;;;;;;;9.93;2.13;;;9.20;99.90;;;9.47;74.60;100270.69;5101905;28;20047;-81
2023/11/08 07:33:44;;;;;;;9.23;2.42;;;9.30;99.90;;;9.48;74.44;100280.31;5089553;28;20407;-81
2023/11/08 07:36:12;;;;;;;7.75;1.92;;;9.30;99.90;;;9.53;74.25;100275.97;5103571;28;20514;-81
2023/11/08 07:38:40;;;;;;;10.10;2.40;;;9.30;99.90;;;9.54;74.42;100277.63;5109766;28;20052;-81
2023/11/08 07:41:08;;;;;;;7.65;2.63;;;9.30;99.90;;;9.48;74.60;100269.66;5110549;28;20048;-81
2023/11/08 07:43:35;;;;;;;11.23;2.72;;;9.30;99.90;;;9.40;74.95;100264.53;5106055;28;20461;-81
2023/11/08 07:46:05;;;;;;;10.65;2.70;;;9.30;99.90;;;9.38;75.35;100274.59;5106268;28;20060;-81
2023/11/08 07:48:34;;;;;;;10.13;2.63;;;9.30;99.90;;;9.38;75.17;100264.75;5107373;28;20048;-81
2023/11/08 07:51:03;;;;;;;15.93;2.88;;;9.30;99.90;;;9.42;75.23;100267.81;5104100;28;20446;-81
2023/11/08 07:53:32;;;;;;;10.55;2.58;;;9.30;99.90;;;9.43;75.54;100269.47;5058236;28;20044;-81
2023/11/08 07:56:01;;;;;;;10.20;2.90;;;9.40;99.90;;;9.44;75.34;100277.22;5105708;28;20063;-81
2023/11/08 07:58:29;;;;;;;8.50;2.78;;;9.40;99.90;;;9.36;75.45;100277.44;5088859;28;20048;-81
2023/11/08 08:00:57;;;;;;;11.35;2.45;;;9.30;99.90;;;9.41;75.61;100274.16;5105809;28;20044;-81
2023/11/08 08:03:24;;;;;;;10.65;2.63;;;9.40;99.90;;;9.44;75.40;100273.75;5053119;28;20102;-80
2023/11/08 08:05:53;;;;;;;10.27;2.13;;;9.40;99.90;;;9.46;75.40;100274.34;5108310;28;20044;-81
2023/11/08 08:08:23;;;;;;;9.50;2.10;;;9.40;99.90;;;9.50;75.67;100259.59;5089814;28;20071;-81
2023/11/08 08:10:54;;;;;;;11.05;2.33;;;9.40;99.90;;;9.54;75.64;100266.97;5106492;28;20056;-81
2023/11/08 08:13:22;;;;;;;6.38;2.60;;;9.50;99.90;;;9.48;75.41;100273.13;5108829;28;20048;-81
2023/11/08 08:15:49;;;;;;;6.18;2.40;;;9.40;99.90;;;9.50;75.71;100262.28;5095426;28;20122;-81
2023/11/08 08:18:17;;;;;;;9.68;2.45;;;9.50;99.90;;;9.51;75.65;100266.56;5130208;28;20060;-81
2023/11/08 08:20:45;;;;;;;16.48;2.63;;;9.50;99.90;;;9.57;75.59;100265.75;5110335;28;20036;-81
2023/11/08 08:23:15;;;;;;;8.68;2.13;;;9.50;99.90;;;9.62;75.71;100263.28;5095450;28;20078;-81
2023/11/08 08:25:43;;;;;;;8.68;2.40;;;9.50;99.90;;;9.60;75.59;100265.31;5113418;28;20067;-81
2023/11/08 08:28:15;;;;;;;7.60;2.47;;;9.50;99.90;;;9.54;75.54;100269.63;5130364;28;20045;-80
2023/11/08 08:30:43;;;;;;;15.25;2.88;;;9.50;99.90;;;9.53;75.73;100270.66;5113775;28;20501;-81
2023/11/08 08:33:15;;;;;;;8.52;2.83;;;9.50;99.90;;;9.56;75.86;100277.41;5103639;28;20063;-81
2023/11/08 08:35:43;;;;;;;13.35;2.60;;;9.50;99.90;;;9.61;75.77;100274.91;5111328;28;20044;-81
2023/11/08 08:38:10;;;;;;;14.25;2.70;;;9.60;99.90;;;9.57;75.84;100272.91;5107422;28;20079;-80
2023/11/08 08:40:38;;;;;;;8.55;2.53;;;9.60;99.90;;;9.55;75.96;100270.44;5073201;28;20040;-81
2023/11/08 08:43:08;;;;;;;10.00;3.03;;;9.60;99.90;;;9.62;76.02;100268.59;5129191;28;20055;-81
2023/11/08 08:45:37;;;;;;;9.55;2.65;;;9.60;99.90;;;9.64;75.76;100268.38;5091826;28;20070;-80
2023/11/08 08:48:06;;;;;;;9.68;2.80;;;9.60;99.90;;;9.64;75.77;100263.06;5109837;28;20052;-81
2023/11/08 08:50:33;;;;;;;9.68;2.40;;;9.60;99.90;;;9.69;75.97;100263.22;5110495;28;20499;-81
2023/11/08 08:53:01;;;;;;;7.72;2.47;;;9.70;99.90;;;9.70;75.80;100259.53;5102061;28;20041;-81
2023/11/08 08:55:29;;;;;;;9.45;2.90;;;9.70;99.90;;;9.71;76.19;100262.00;5073507;28;20044;-81
2023/11/08 08:57:57;;;;;;;13.73;3.05;;;9.70;99.90;;;9.74;76.45;100261.56;5098076;28;20036;-81
2023/11/08 09:00:24;;;;;;;9.80;2.80;;;9.80;99.90;;;9.78;76.61;100259.31;5116419;28;20100;-81
2023/11/08 09:02:54;;;;;;;11.88;2.53;;;9.80;99.90;;;9.83;77.08;100261.34;5089904;28;20411;-81
2023/11/08 09:05:21;;;;;;;14.27;2.60;;;9.90;99.90;;;9.88;77.06;100264.19;5088367;28;20040;-81
2023/11/08 09:07:49;;;;;;;7.40;2.60;;;10.00;99.90;;;9.91;76.59;100263.78;5102735;28;20040;-81
2023/11/08 09:10:20;;;;;;;10.38;2.33;;;10.00;99.90;;;9.85;75.60;100268.06;5089773;28;20051;-81
2023/11/08 09:12:48;;;;;;;;;;;10.00;99.90;;;9.86;76.07;100266.22;5091712;28;20047;-81
2023/11/08 09:15:15;;;;;;;6.50;2.15;;;10.00;99.90;;;9.86;75.89;100266.22;5100770;28;19951;-81
2023/11/08 09:17:43;;;;;;;10.23;2.30;;;10.00;99.90;;;9.90;76.06;100260.28;5110757;28;20048;-81
2023/11/08 09:20:12;;;;;;;9.43;2.63;;;10.00;99.90;;;9.97;76.02;100269.06;5075989;28;20064;-81
2023/11/08 09:22:41;;;;;;;7.88;2.10;;;10.00;99.90;;;9.96;76.12;100270.09;5075583;28;20457;-80
2023/11/08 09:25:10;;;;;;;11.23;2.35;;;10.10;99.90;;;9.98;76.02;100268.03;5108394;28;20135;-80
2023/11/08 09:27:38;;;;;;;8.70;2.25;;;10.10;99.90;;;9.97;75.61;100268.25;5108320;28;20097;-80
2023/11/08 09:30:08;;;;;;;14.20;2.47;;;10.10;99.90;;;9.98;75.71;100270.69;5110745;28;20044;-81
2023/11/08 09:32:36;;;;;;;12.80;2.67;;;10.10;99.90;;;10.02;75.78;100265.75;5109516;28;20048;-81
2023/11/08 09:35:04;;;;;;;8.70;2.30;;;10.10;99.90;;;10.09;75.58;100263.06;5107801;28;20078;-80
2023/11/08 09:37:36;;;;;;;9.55;2.10;;;10.20;99.90;;;10.18;75.64;100273.25;5109905;28;20043;-81
2023/11/08 09:40:09;;;;;;;15.25;2.50;;;10.30;99.90;;;10.26;75.23;100270.38;5091634;28;20044;-81
2023/11/08 09:42:40;;;;;;;10.38;1.88;;;10.40;99.90;;;10.31;74.38;100275.88;5109411;28;20044;-81
2023/11/08 09:45:11;;;;;;;7.88;1.90;;;10.50;99.90;;;10.32;74.46;100272.19;5060420;28;20052;-81
2023/11/08 09:47:39;;;;;;;9.27;1.80;;;10.50;99.90;;;10.39;74.35;100263.31;5110705;28;20044;-81
2023/11/08 09:50:12;;;;;;;13.50;2.10;;;10.60;99.90;;;10.42;74.08;100270.91;5092587;28;20044;-81
2023/11/08 09:52:41;;;;;;;11.43;1.98;;;10.60;99.90;;;10.52;74.54;100260.56;5110874;28;20042;-80
2023/11/08 09:55:10;;;;;;;10.77;2.10;;;10.70;99.90;;;10.62;73.99;100271.56;5085822;28;20051;-81
2023/11/08 09:57:39;;;;;;;7.30;1.70;;;10.80;99.90;;;10.71;73.70;100259.63;5093731;28;20095;-80
2023/11/08 10:00:09;;;;;;;6.32;1.92;;;10.90;99.90;;;10.76;72.64;100257.09;5109907;28;20048;-80
2023/11/08 10:02:43;;;;;;;10.07;1.83;;;11.00;99.90;;;10.75;72.56;100255.47;5106875;28;20100;-80
2023/11/08 10:05:13;;;;;;;7.70;1.73;;;11.00;99.90;;;10.73;72.57;100257.53;5112131;28;20051;-80
2023/11/08 10:07:43;;;;;;;11.90;1.92;;;11.00;99.90;;;10.71;71.15;100251.63;5095096;28;20054;-80
2023/11/08 10:10:11;;;;;;;11.45;1.90;;;10.90;99.90;;;10.71;71.16;100259.63;5111853;28;20062;-80
2023/11/08 10:12:39;;;;;;;12.00;2.20;;;10.90;99.90;;;10.73;71.07;100259.38;5105328;28;20055;-81
2023/11/08 10:15:08;;;;;;;12.95;1.70;;;11.00;99.90;;;10.73;70.70;100256.72;5101011;28;20041;-81
2023/11/08 10:17:38;;;;;;;6.35;1.60;;;10.90;99.90;;;10.77;70.67;100263.25;5090504;28;20144;-81
2023/11/08 10:20:09;;;;;;;9.32;1.75;;;10.90;99.90;;;10.75;70.55;100257.34;5109433;28;20044;-81
2023/11/08 10:22:37;;;;;;;9.10;2.05;;;10.90;99.90;;;10.76;68.92;100257.09;5110745;28;20056;-81
2023/11/08 10:25:08;;;;;;;8.43;1.67;;;11.00;99.90;;;10.82;70.11;100258.91;5110503;28;20074;-80
2023/11/08 10:27:38;;;;;;;10.65;1.80;;;11.00;99.90;;;10.83;68.98;100257.03;5057574;28;20047;-81